createdAt,value
2019-04-16T00:02:18.768Z,33.93
2019-04-16T00:05:03.445Z,33.30
2019-04-16T00:07:36.505Z,33.90
2019-04-16T00:10:17.613Z,31.63
2019-04-16T00:12:47.885Z,36.13
2019-04-16T00:15:16.692Z,33.87
2019-04-16T00:17:47.265Z,31.20
2019-04-16T00:20:15.666Z,35.43
2019-04-16T00:22:45.829Z,34.70
2019-04-16T00:25:14.614Z,36.33
2019-04-16T00:27:43.267Z,32.37
2019-04-16T00:30:13.127Z,36.70
2019-04-16T00:32:42.656Z,33.63
2019-04-16T00:35:15.367Z,33.50
2019-04-16T00:37:41.736Z,34.77
2019-04-16T00:40:10.507Z,34.63
2019-04-16T00:42:39.113Z,33.13
2019-04-16T00:45:08.590Z,36.10
2019-04-16T00:47:37.131Z,33.60
2019-04-16T00:50:07.124Z,34.63
2019-04-16T00:52:37.076Z,37.20
2019-04-16T00:55:07.578Z,32.60
2019-04-16T00:57:36.147Z,35.03
2019-04-16T01:00:06.655Z,34.17
2019-04-16T01:02:35.221Z,32.03
2019-04-16T01:05:05.421Z,35.33
2019-04-16T01:07:34.113Z,34.63
2019-04-16T01:10:02.826Z,37.90
2019-04-16T01:12:31.509Z,40.67
2019-04-16T01:15:01.054Z,40.20
2019-04-16T01:17:29.818Z,36.70
2019-04-16T01:19:58.309Z,38.87
2019-04-16T01:22:26.973Z,42.23
2019-04-16T01:24:55.508Z,34.97
2019-04-16T01:27:28.561Z,37.57
2019-04-16T01:29:55.982Z,35.13
2019-04-16T01:32:45.042Z,41.17
2019-04-16T01:35:18.572Z,37.67
2019-04-16T01:38:03.476Z,37.27
2019-04-16T01:40:33.656Z,38.53
2019-04-16T01:43:02.279Z,41.97
2019-04-16T01:45:30.848Z,35.00
2019-04-16T01:47:59.514Z,37.70
2019-04-16T01:50:28.055Z,36.60
2019-04-16T01:52:56.682Z,39.67
2019-04-16T01:55:25.708Z,45.07
2019-04-16T01:57:55.008Z,39.40
2019-04-16T02:00:23.609Z,37.20
2019-04-16T02:02:52.164Z,38.57
2019-04-16T02:05:23.160Z,39.30
2019-04-16T02:07:50.904Z,40.57
2019-04-16T02:10:19.466Z,39.00
2019-04-16T02:12:48.028Z,34.97
2019-04-16T02:15:16.542Z,37.07
2019-04-16T03:45:32.951Z,34.40
2019-04-16T03:48:01.450Z,35.70
2019-04-16T03:50:31.498Z,38.00
2019-04-16T03:53:00.432Z,35.33
2019-04-16T03:55:29.112Z,35.73
2019-04-16T03:57:57.682Z,38.53
2019-04-16T04:00:26.299Z,37.63
2019-04-16T04:02:55.432Z,42.90
2019-04-16T04:05:24.061Z,35.50
2019-04-16T04:07:55.264Z,35.33
2019-04-16T04:10:30.543Z,39.03
2019-04-16T04:12:53.136Z,47.70
2019-04-16T04:15:25.972Z,33.67
2019-04-16T04:17:51.798Z,38.37
2019-04-16T04:20:20.350Z,36.37
2019-04-16T04:22:48.848Z,37.53
2019-04-16T04:25:17.613Z,38.47
2019-04-16T04:27:46.768Z,37.47
2019-04-16T04:30:18.399Z,39.07
2019-04-16T04:32:47.676Z,41.13
2019-04-16T04:35:20.609Z,38.33
2019-04-16T04:37:46.800Z,39.90
2019-04-16T04:40:16.144Z,38.80
2019-04-16T04:42:45.629Z,34.27
2019-04-16T04:45:14.242Z,35.27
2019-04-16T04:47:42.935Z,40.13
2019-04-16T04:50:11.518Z,33.23
2019-04-16T04:52:40.154Z,37.37
2019-04-16T04:55:08.789Z,37.33
2019-04-16T04:57:37.404Z,33.60
2019-04-16T05:00:09.544Z,35.57
2019-04-16T05:02:38.278Z,35.70
2019-04-16T05:05:24.666Z,35.07
2019-04-16T05:07:51.614Z,39.23
2019-04-16T05:10:20.162Z,34.90
2019-04-16T05:12:50.436Z,40.10
2019-04-16T05:15:19.143Z,38.00
2019-04-16T05:17:47.668Z,32.43
2019-04-16T05:20:16.667Z,40.03
2019-04-16T05:22:45.403Z,35.87
2019-04-16T05:25:14.208Z,40.97
2019-04-16T05:27:42.940Z,35.43
2019-04-16T05:30:11.690Z,48.10
2019-04-16T05:32:40.220Z,32.87
2019-04-16T05:35:10.260Z,43.40
2019-04-16T05:37:39.324Z,37.15
2019-04-16T05:40:08.731Z,34.93
2019-04-16T05:42:37.340Z,36.53
2019-04-16T05:45:14.168Z,43.03
2019-04-16T05:47:42.779Z,44.03
2019-04-16T05:50:11.428Z,36.33
2019-04-16T05:52:39.964Z,40.63
2019-04-16T05:55:10.281Z,34.70
2019-04-16T05:57:40.503Z,35.97
2019-04-16T06:00:11.642Z,35.07
2019-04-16T06:02:44.183Z,42.33
2019-04-16T06:05:12.988Z,33.83
2019-04-16T06:07:41.600Z,38.80
2019-04-16T06:10:16.693Z,35.77
2019-04-16T06:12:48.870Z,40.50
2019-04-16T06:15:24.910Z,36.70
2019-04-16T06:18:11.165Z,32.17
2019-04-16T06:20:44.319Z,35.93
2019-04-16T06:23:17.344Z,36.87
2019-04-16T06:25:49.080Z,36.10
2019-04-16T06:28:19.568Z,39.43
2019-04-16T06:30:50.240Z,37.67
2019-04-16T06:33:32.829Z,31.83
2019-04-16T06:36:20.179Z,36.03
2019-04-16T06:38:50.400Z,44.70
2019-04-16T06:41:40.799Z,34.67
2019-04-16T06:44:04.012Z,35.33
2019-04-16T06:46:41.933Z,36.70
2019-04-16T06:49:21.279Z,37.17
2019-04-16T06:52:07.371Z,35.07
2019-04-16T06:54:37.501Z,36.83
2019-04-16T06:57:26.775Z,35.40
2019-04-16T06:59:59.540Z,39.60
2019-04-16T07:02:43.151Z,34.07
2019-04-16T07:05:31.887Z,42.77
2019-04-16T07:08:04.625Z,34.50
2019-04-16T07:10:44.351Z,30.63
2019-04-16T07:13:09.935Z,30.43
2019-04-16T07:15:35.564Z,37.43
2019-04-16T07:18:05.562Z,33.77
2019-04-16T07:20:34.403Z,33.40
2019-04-16T07:23:02.995Z,34.10
2019-04-16T07:25:32.170Z,33.40
2019-04-16T07:28:03.571Z,29.27
2019-04-16T07:30:40.801Z,28.97
2019-04-16T07:33:20.147Z,27.57
2019-04-16T07:35:55.880Z,28.37
2019-04-16T07:38:26.373Z,28.97
2019-04-16T07:41:12.156Z,26.00
2019-04-16T07:43:40.615Z,28.73
2019-04-16T07:46:28.936Z,24.93
2019-04-16T07:49:14.387Z,29.77
2019-04-16T07:52:07.011Z,32.27
2019-04-16T07:54:52.500Z,27.37
2019-04-16T07:57:20.966Z,24.40
2019-04-16T07:59:49.585Z,26.23
2019-04-16T08:02:21.622Z,26.57
2019-04-16T08:04:49.822Z,28.83
2019-04-16T08:07:20.554Z,29.20
2019-04-16T08:09:48.769Z,27.40
2019-04-16T08:12:29.965Z,33.17
2019-04-16T08:14:47.590Z,27.67
2019-04-16T08:17:16.126Z,26.67
2019-04-16T08:19:48.260Z,29.75
2019-04-16T08:22:15.802Z,33.13
2019-04-16T08:24:46.982Z,28.07
2019-04-16T08:27:19.261Z,30.40
2019-04-16T08:29:45.922Z,28.17
2019-04-16T08:32:16.077Z,30.67
2019-04-16T08:34:44.879Z,30.60
2019-04-16T08:37:13.419Z,24.90
2019-04-16T08:39:42.087Z,28.10
2019-04-16T08:42:10.717Z,28.57
2019-04-16T08:44:39.313Z,30.53
2019-04-16T08:47:11.514Z,30.30
2019-04-16T08:49:38.152Z,27.83
2019-04-16T08:52:09.837Z,28.70
2019-04-16T08:54:37.087Z,31.43
2019-04-16T08:57:05.742Z,30.03
2019-04-16T08:59:34.213Z,29.80
2019-04-16T09:02:02.707Z,29.93
2019-04-16T09:04:33.994Z,29.07
2019-04-16T09:07:11.348Z,30.70
2019-04-16T09:09:39.003Z,32.37
2019-04-16T09:12:09.436Z,37.87
2019-04-16T09:14:40.005Z,31.23
2019-04-16T09:17:19.160Z,29.10
2019-04-16T09:19:49.484Z,33.47
2019-04-16T09:22:18.030Z,30.67
2019-04-16T09:24:50.895Z,32.83
2019-04-16T09:27:33.865Z,29.83
2019-04-16T09:30:20.085Z,30.33
2019-04-16T09:33:02.500Z,31.03
2019-04-16T09:35:32.730Z,36.27
2019-04-16T09:38:12.987Z,27.90
2019-04-16T09:40:43.685Z,30.77
2019-04-16T09:43:19.780Z,35.17
2019-04-16T09:45:48.507Z,29.90
2019-04-16T09:48:17.097Z,35.23
2019-04-16T09:50:47.825Z,37.20
2019-04-16T09:53:16.248Z,29.33
2019-04-16T09:55:47.595Z,32.70
2019-04-16T09:58:27.544Z,31.63
2019-04-16T10:01:09.716Z,31.50
2019-04-16T10:03:41.618Z,27.23
2019-04-16T10:06:10.770Z,31.03
2019-04-16T10:08:44.497Z,34.03
2019-04-16T10:11:09.641Z,29.50
2019-04-16T10:13:38.239Z,32.17
2019-04-16T10:16:08.463Z,33.57
2019-04-16T10:18:37.103Z,35.63
2019-04-16T10:21:05.849Z,31.23
2019-04-16T10:23:38.881Z,33.63
2019-04-16T10:26:07.744Z,27.87
2019-04-16T10:28:40.835Z,33.17
2019-04-16T10:31:11.211Z,34.57
2019-04-16T10:33:39.831Z,31.40
2019-04-16T10:36:08.533Z,33.83
2019-04-16T10:38:47.374Z,32.60
2019-04-16T10:41:20.436Z,31.33
2019-04-16T10:43:56.419Z,33.20
2019-04-16T10:46:29.337Z,36.33
2019-04-16T10:49:14.634Z,34.37
2019-04-16T10:51:44.958Z,32.47
2019-04-16T10:54:33.802Z,32.97
2019-04-16T10:57:19.031Z,33.80
2019-04-16T11:00:05.500Z,31.83
2019-04-16T11:02:35.822Z,32.93
2019-04-16T11:05:09.767Z,31.07
2019-04-16T11:07:40.050Z,33.13
2019-04-16T11:10:11.748Z,33.37
2019-04-16T11:12:39.545Z,35.90
2019-04-16T11:15:08.633Z,33.03
2019-04-16T11:17:37.778Z,36.20
2019-04-16T11:20:07.328Z,33.57
2019-04-16T11:22:35.898Z,34.73
2019-04-16T11:25:05.946Z,34.77
2019-04-16T11:27:34.582Z,34.73
2019-04-16T11:30:04.114Z,32.03
2019-04-16T11:32:39.007Z,31.50
2019-04-16T11:35:07.391Z,30.07
2019-04-16T11:37:36.318Z,33.70
2019-04-16T11:40:06.135Z,34.60
2019-04-16T11:42:34.759Z,29.80
2019-04-16T11:45:04.828Z,32.73
2019-04-16T11:47:34.236Z,31.57
2019-04-16T11:50:04.393Z,28.37
2019-04-16T11:52:32.992Z,31.60
2019-04-16T11:55:01.531Z,25.83
2019-04-16T11:57:33.292Z,27.43
2019-04-16T12:00:07.742Z,27.57
2019-04-16T12:02:32.163Z,29.30
2019-04-16T12:05:08.060Z,28.93
2019-04-16T12:07:38.284Z,27.90
2019-04-16T12:10:11.704Z,30.10
2019-04-16T12:12:51.118Z,32.30
2019-04-16T12:15:21.384Z,32.73
2019-04-16T12:18:00.385Z,35.00
2019-04-16T12:20:45.396Z,32.43
2019-04-16T12:23:31.785Z,29.00
2019-04-16T12:26:09.506Z,30.27
2019-04-16T12:28:45.524Z,33.70
2019-04-16T12:31:32.002Z,35.17
2019-04-16T12:34:11.393Z,33.30
2019-04-16T12:36:59.841Z,33.03
2019-04-16T12:39:36.349Z,35.67
2019-04-16T12:42:09.943Z,35.50
2019-04-16T12:44:45.737Z,37.97
2019-04-16T12:50:03.967Z,34.57
2019-04-16T12:52:46.033Z,34.60
2019-04-16T12:55:32.538Z,32.47
2019-04-16T12:58:05.507Z,34.90
2019-04-16T13:00:44.706Z,34.30
2019-04-16T13:03:26.851Z,33.83
2019-04-16T13:06:15.382Z,32.50
2019-04-16T13:09:02.224Z,30.67
2019-04-16T13:11:35.000Z,31.70
2019-04-16T13:14:16.000Z,26.60
2019-04-16T13:17:04.636Z,26.87
2019-04-16T13:19:34.999Z,26.97
2019-04-16T13:22:05.283Z,27.27
2019-04-16T13:24:35.414Z,27.27
2019-04-16T13:27:08.555Z,32.43
2019-04-16T13:29:37.047Z,27.63
2019-04-16T13:32:05.725Z,36.77
2019-04-16T13:34:34.279Z,34.30
2019-04-16T13:37:03.005Z,34.60
2019-04-16T13:39:45.308Z,32.30
2019-04-16T13:42:13.872Z,35.23
2019-04-16T13:44:46.907Z,28.80
2019-04-16T13:47:15.733Z,29.35
2019-04-16T13:49:52.006Z,31.03
2019-04-16T13:52:24.966Z,32.70
2019-04-16T13:55:08.420Z,37.27
2019-04-16T13:57:39.115Z,35.43
2019-04-16T14:00:13.654Z,32.63
2019-04-16T14:02:51.213Z,33.80
2019-04-16T14:05:20.339Z,31.40
2019-04-16T14:07:49.084Z,33.97
2019-04-16T14:10:17.843Z,34.80
2019-04-16T14:12:46.412Z,34.07
2019-04-16T14:15:30.861Z,29.60
2019-04-16T14:17:53.070Z,32.17
2019-04-16T14:20:16.380Z,31.63
2019-04-16T14:22:44.958Z,31.80
2019-04-16T14:25:13.813Z,28.73
2019-04-16T14:27:42.389Z,28.43
2019-04-16T14:30:12.940Z,23.50
2019-04-16T14:32:41.713Z,22.93
2019-04-16T14:35:12.333Z,26.77
2019-04-16T14:37:40.878Z,30.07
2019-04-16T14:40:14.733Z,27.87
2019-04-16T14:42:43.457Z,34.20
2019-04-16T14:45:26.734Z,32.67
2019-04-16T14:47:55.279Z,29.03
2019-04-16T14:50:24.450Z,28.50
2019-04-16T14:52:53.445Z,26.03
2019-04-16T14:55:29.549Z,29.43
2019-04-16T14:58:16.244Z,30.57
2019-04-16T15:01:06.925Z,26.97
2019-04-16T15:03:37.125Z,28.57
2019-04-16T15:06:13.093Z,32.30
2019-04-16T15:08:59.460Z,35.13
2019-04-16T15:11:29.729Z,30.90
2019-04-16T15:14:02.455Z,33.57
2019-04-16T15:16:41.606Z,33.03
2019-04-16T15:19:12.061Z,32.93
2019-04-16T15:21:58.614Z,31.10
2019-04-16T15:24:28.752Z,33.57
2019-04-16T15:27:01.559Z,31.77
2019-04-16T15:29:31.711Z,32.47
2019-04-16T15:32:10.851Z,32.70
2019-04-16T15:34:43.015Z,33.77
2019-04-16T15:37:13.009Z,32.07
2019-04-16T15:39:43.241Z,32.73
2019-04-16T15:42:16.680Z,35.70
2019-04-16T15:44:56.121Z,33.67
2019-04-16T15:47:32.783Z,34.37
2019-04-16T15:50:11.960Z,32.40
2019-04-16T15:52:45.933Z,37.83
2019-04-16T15:55:31.975Z,36.13
2019-04-16T15:58:18.805Z,43.47
2019-04-16T16:00:51.779Z,38.63
2019-04-16T16:03:27.947Z,36.60
2019-04-16T16:06:16.839Z,37.50
2019-04-16T16:08:55.091Z,37.60
2019-04-16T16:11:25.313Z,38.47
2019-04-16T16:13:56.653Z,38.43
2019-04-16T16:16:24.042Z,42.77
2019-04-16T16:18:52.684Z,39.33
2019-04-16T16:21:21.384Z,44.13
2019-04-16T16:23:49.993Z,41.20
2019-04-16T16:26:18.599Z,42.47
2019-04-16T16:28:48.433Z,41.53
2019-04-16T16:31:17.051Z,42.17
2019-04-16T16:33:45.809Z,42.97
2019-04-16T16:36:14.432Z,42.93
2019-04-16T16:38:48.287Z,49.47
2019-04-16T16:41:13.293Z,43.27
2019-04-16T16:43:41.861Z,41.10
2019-04-16T16:46:15.040Z,43.23
2019-04-16T16:48:43.710Z,41.23
2019-04-16T16:51:14.810Z,44.37
2019-04-16T16:53:56.721Z,41.30
2019-04-16T16:56:44.650Z,41.93
2019-04-16T16:59:31.359Z,45.97
2019-04-16T17:02:01.609Z,44.63
2019-04-16T17:04:31.848Z,43.23
2019-04-16T17:07:02.460Z,40.57
2019-04-16T17:12:31.332Z,44.57
2019-04-16T17:15:00.145Z,46.57
2019-04-16T17:17:28.861Z,45.50
2019-04-16T17:20:01.119Z,43.33
2019-04-16T17:22:54.367Z,43.80
2019-04-16T17:25:36.050Z,43.07
2019-04-16T17:28:20.901Z,43.53
2019-04-16T17:30:40.549Z,45.07
2019-04-16T17:33:10.119Z,45.17
2019-04-16T17:35:46.602Z,49.50
2019-04-16T17:38:15.872Z,48.60
2019-04-16T17:41:00.077Z,47.30
2019-04-16T17:44:00.310Z,45.67
2019-04-16T17:46:24.866Z,45.17
2019-04-16T17:48:55.601Z,47.60
2019-04-16T17:51:25.957Z,45.90
2019-04-16T17:53:56.225Z,52.17
2019-04-16T17:56:38.456Z,45.30
2019-04-16T17:59:08.671Z,47.83
2019-04-16T18:01:55.189Z,47.43
2019-04-16T18:04:37.135Z,48.20
2019-04-16T18:07:23.804Z,41.50
2019-04-16T18:09:53.983Z,45.10
2019-04-16T18:12:36.022Z,49.23
2019-04-16T18:15:10.872Z,48.20
2019-04-16T18:17:56.276Z,47.07
2019-04-16T18:20:26.569Z,48.27
2019-04-16T18:23:12.979Z,44.10
2019-04-16T18:25:59.748Z,50.47
2019-04-16T18:28:46.571Z,47.33
2019-04-16T18:31:31.039Z,46.00
2019-04-16T18:34:10.227Z,46.47
2019-04-16T18:36:46.485Z,43.60
2019-04-16T18:39:16.683Z,51.87
2019-04-16T18:41:49.834Z,46.30
2019-04-16T18:44:22.635Z,45.27
2019-04-16T18:47:05.472Z,52.30
2019-04-16T18:49:36.145Z,49.17
2019-04-16T18:52:06.386Z,55.80
2019-04-16T18:54:35.179Z,51.63
2019-04-16T18:57:03.893Z,53.90
2019-04-16T18:59:32.438Z,48.10
2019-04-16T19:02:08.767Z,51.00
2019-04-16T19:04:35.532Z,49.47
2019-04-16T19:07:04.736Z,49.70
2019-04-16T19:09:33.977Z,53.50
2019-04-16T19:12:02.793Z,51.73
2019-04-16T19:14:31.362Z,49.63
2019-04-16T19:16:59.920Z,50.37
2019-04-16T19:19:28.547Z,48.13
2019-04-16T19:21:57.247Z,50.23
2019-04-16T19:24:25.791Z,58.47
2019-04-16T19:26:54.494Z,46.10
2019-04-16T19:29:23.051Z,53.20
2019-04-16T19:31:54.957Z,54.33
2019-04-16T19:34:22.207Z,48.37
2019-04-16T19:36:50.877Z,51.10
2019-04-16T19:39:19.593Z,55.97
2019-04-16T19:41:48.123Z,52.63
2019-04-16T19:44:16.675Z,55.00
2019-04-16T19:46:45.470Z,53.80
2019-04-16T19:49:15.580Z,57.37
2019-04-16T19:51:44.232Z,58.07
2019-04-16T19:54:13.729Z,61.07
2019-04-16T19:56:42.204Z,58.07
2019-04-16T19:59:11.068Z,56.73
2019-04-16T20:01:39.677Z,55.80
2019-04-16T20:04:10.665Z,56.00
2019-04-16T20:06:38.567Z,57.47
2019-04-16T20:09:07.738Z,57.57
2019-04-16T20:11:36.295Z,54.50
2019-04-16T20:14:07.339Z,55.63
2019-04-16T20:16:36.403Z,54.80
2019-04-16T20:19:05.112Z,54.30
2019-04-16T20:21:37.378Z,56.60
2019-04-16T20:24:03.875Z,56.17
2019-04-16T20:26:33.605Z,52.60
2019-04-16T20:29:02.328Z,55.97
2019-04-16T20:31:30.962Z,54.27
2019-04-16T20:34:00.717Z,53.73
2019-04-16T20:36:29.262Z,51.40
2019-04-16T20:41:52.751Z,51.70
2019-04-16T20:44:19.537Z,51.77
2019-04-16T20:46:48.049Z,52.07
2019-04-16T20:49:17.447Z,55.23
2019-04-16T20:51:46.202Z,51.33
2019-04-16T20:54:14.682Z,51.47
2019-04-16T20:56:43.266Z,51.20
2019-04-16T20:59:11.755Z,52.90
2019-04-16T21:01:40.289Z,61.20
2019-04-16T21:04:08.837Z,54.80
2019-04-16T21:06:40.524Z,54.90
2019-04-16T21:09:08.086Z,54.10
2019-04-16T21:11:40.518Z,52.00
2019-04-16T21:14:06.899Z,56.00
2019-04-16T21:16:35.522Z,58.47
2019-04-16T21:19:04.170Z,56.00
2019-04-16T21:21:32.703Z,52.40
2019-04-16T21:24:06.577Z,51.97
2019-04-16T21:26:31.392Z,52.13
2019-04-16T21:29:07.449Z,55.83
2019-04-16T21:31:37.794Z,50.00
2019-04-16T21:34:29.791Z,48.67
2019-04-16T21:37:13.750Z,52.70
2019-04-16T21:40:02.221Z,53.03
2019-04-16T21:42:34.571Z,60.43
2019-04-16T21:45:01.390Z,56.07
2019-04-16T21:47:29.928Z,58.30
2019-04-16T21:49:58.530Z,58.77
2019-04-16T21:52:27.012Z,71.50
2019-04-16T21:54:55.588Z,66.10
2019-04-16T21:57:24.301Z,67.67
2019-04-16T21:59:56.713Z,73.80
2019-04-16T22:02:27.780Z,67.40
2019-04-16T22:04:56.824Z,71.43
2019-04-16T22:07:25.582Z,68.73
2019-04-16T22:09:54.392Z,74.67
2019-04-16T22:12:22.994Z,71.53
2019-04-16T22:14:54.226Z,74.77
2019-04-16T22:17:21.904Z,72.27
2019-04-16T22:19:54.435Z,71.80
2019-04-16T22:22:20.820Z,78.03
2019-04-16T22:24:51.847Z,80.23
2019-04-16T22:27:19.649Z,86.97
2019-04-16T22:29:48.309Z,85.73
2019-04-16T22:32:16.859Z,83.57
2019-04-16T22:34:45.436Z,85.43
2019-04-16T22:37:14.055Z,86.63
2019-04-16T22:39:56.209Z,89.13
2019-04-16T22:42:26.524Z,94.73
2019-04-16T22:45:13.510Z,89.67
2019-04-16T22:47:43.696Z,92.23
2019-04-16T22:50:17.005Z,94.03
2019-04-16T22:52:45.217Z,91.73
2019-04-16T22:55:12.907Z,97.40
2019-04-16T22:57:41.539Z,92.73
2019-04-16T23:00:17.582Z,97.10
2019-04-16T23:02:48.258Z,92.47
2019-04-16T23:05:16.430Z,96.23
2019-04-16T23:07:44.978Z,95.43
2019-04-16T23:10:13.626Z,104.13
2019-04-16T23:12:42.166Z,99.67
2019-04-16T23:15:12.685Z,105.77
2019-04-16T23:17:42.830Z,106.13
2019-04-16T23:20:11.639Z,109.40
2019-04-16T23:22:40.220Z,108.90
2019-04-16T23:25:09.024Z,116.80
2019-04-16T23:27:38.216Z,112.30
2019-04-16T23:30:07.516Z,111.30
2019-04-16T23:32:36.080Z,119.57
2019-04-16T23:35:09.421Z,117.27
2019-04-16T23:37:36.351Z,120.37
2019-04-16T23:40:07.538Z,118.47
2019-04-16T23:42:37.632Z,120.00
2019-04-16T23:45:31.162Z,117.37
2019-04-16T23:48:15.779Z,123.20
2019-04-16T23:51:04.411Z,125.07
2019-04-16T23:53:38.371Z,133.03
2019-04-16T23:56:12.302Z,127.00
2019-04-16T23:58:42.428Z,120.20
